sensor_id;sensor_type;location;lat;lon;timestamp;P1;durP1;ratioP1;P2;durP2;ratioP2
8675;SDS011;4375;52.486;13.424;2024-01-30T00:01:25;25.30;;;8.87;;
8675;SDS011;4375;52.486;13.424;2024-01-30T00:03:51;27.93;;;8.30;;
8675;SDS011;4375;52.486;13.424;2024-01-30T00:06:19;25.50;;;7.97;;
8675;SDS011;4375;52.486;13.424;2024-01-30T00:08:46;30.20;;;9.00;;
8675;SDS011;4375;52.486;13.424;2024-01-30T00:11:13;26.20;;;8.67;;
8675;SDS011;4375;52.486;13.424;2024-01-30T00:13:39;25.20;;;7.67;;
8675;SDS011;4375;52.486;13.424;2024-01-30T00:16:05;23.70;;;8.03;;
8675;SDS011;4375;52.486;13.424;2024-01-30T00:18:31;23.00;;;7.27;;
8675;SDS011;4375;52.486;13.424;2024-01-30T00:20:57;23.33;;;8.00;;
8675;SDS011;4375;52.486;13.424;2024-01-30T00:23:22;24.77;;;8.37;;
8675;SDS011;4375;52.486;13.424;2024-01-30T00:25:48;23.83;;;7.37;;
8675;SDS011;4375;52.486;13.424;2024-01-30T00:28:14;30.23;;;8.83;;
8675;SDS011;4375;52.486;13.424;2024-01-30T00:30:40;27.93;;;9.87;;
8675;SDS011;4375;52.486;13.424;2024-01-30T00:33:06;37.73;;;9.20;;
8675;SDS011;4375;52.486;13.424;2024-01-30T00:35:33;23.60;;;8.40;;
8675;SDS011;4375;52.486;13.424;2024-01-30T00:37:58;26.73;;;8.40;;
8675;SDS011;4375;52.486;13.424;2024-01-30T00:40:24;26.07;;;9.50;;
8675;SDS011;4375;52.486;13.424;2024-01-30T00:42:50;31.17;;;9.70;;
8675;SDS011;4375;52.486;13.424;2024-01-30T00:45:16;27.27;;;9.30;;
8675;SDS011;4375;52.486;13.424;2024-01-30T00:47:42;25.07;;;9.27;;
8675;SDS011;4375;52.486;13.424;2024-01-30T00:50:08;25.33;;;9.10;;
8675;SDS011;4375;52.486;13.424;2024-01-30T00:52:34;29.40;;;8.93;;
8675;SDS011;4375;52.486;13.424;2024-01-30T00:55:00;26.87;;;8.83;;
8675;SDS011;4375;52.486;13.424;2024-01-30T00:57:27;21.70;;;8.73;;
8675;SDS011;4375;52.486;13.424;2024-01-30T00:59:53;24.13;;;8.13;;
8675;SDS011;4375;52.486;13.424;2024-01-30T01:02:18;26.47;;;8.40;;
8675;SDS011;4375;52.486;13.424;2024-01-30T01:04:44;28.13;;;8.83;;
8675;SDS011;4375;52.486;13.424;2024-01-30T01:07:10;26.20;;;7.87;;
8675;SDS011;4375;52.486;13.424;2024-01-30T01:09:36;35.53;;;9.17;;
8675;SDS011;4375;52.486;13.424;2024-01-30T01:12:02;25.30;;;8.17;;
8675;SDS011;4375;52.486;13.424;2024-01-30T01:14:28;23.77;;;8.30;;
8675;SDS011;4375;52.486;13.424;2024-01-30T01:16:54;24.13;;;7.77;;
8675;SDS011;4375;52.486;13.424;2024-01-30T01:19:19;25.80;;;8.37;;
8675;SDS011;4375;52.486;13.424;2024-01-30T01:21:45;22.10;;;7.50;;
8675;SDS011;4375;52.486;13.424;2024-01-30T01:24:10;24.20;;;7.67;;
8675;SDS011;4375;52.486;13.424;2024-01-30T01:26:36;25.17;;;7.30;;
8675;SDS011;4375;52.486;13.424;2024-01-30T01:29:02;25.47;;;8.30;;
8675;SDS011;4375;52.486;13.424;2024-01-30T01:31:34;27.90;;;8.60;;
8675;SDS011;4375;52.486;13.424;2024-01-30T01:34:08;25.70;;;8.80;;
8675;SDS011;4375;52.486;13.424;2024-01-30T01:36:35;24.60;;;8.40;;
8675;SDS011;4375;52.486;13.424;2024-01-30T01:39:00;29.23;;;8.03;;
8675;SDS011;4375;52.486;13.424;2024-01-30T01:41:29;27.53;;;8.50;;
8675;SDS011;4375;52.486;13.424;2024-01-30T01:43:56;25.00;;;7.50;;
8675;SDS011;4375;52.486;13.424;2024-01-30T01:46:22;24.70;;;8.03;;
8675;SDS011;4375;52.486;13.424;2024-01-30T01:48:47;24.90;;;8.27;;
8675;SDS011;4375;52.486;13.424;2024-01-30T01:51:14;26.07;;;8.23;;
8675;SDS011;4375;52.486;13.424;2024-01-30T01:53:41;22.60;;;7.37;;
8675;SDS011;4375;52.486;13.424;2024-01-30T01:56:07;28.87;;;8.43;;
8675;SDS011;4375;52.486;13.424;2024-01-30T01:58:33;26.13;;;8.20;;
8675;SDS011;4375;52.486;13.424;2024-01-30T02:00:59;27.70;;;10.53;;
8675;SDS011;4375;52.486;13.424;2024-01-30T02:03:25;28.13;;;9.10;;
8675;SDS011;4375;52.486;13.424;2024-01-30T02:05:51;25.87;;;8.97;;
8675;SDS011;4375;52.486;13.424;2024-01-30T02:08:16;24.10;;;8.60;;
8675;SDS011;4375;52.486;13.424;2024-01-30T02:10:42;25.77;;;8.60;;
8675;SDS011;4375;52.486;13.424;2024-01-30T02:13:08;29.07;;;9.53;;
8675;SDS011;4375;52.486;13.424;2024-01-30T02:15:33;29.43;;;9.20;;
8675;SDS011;4375;52.486;13.424;2024-01-30T02:17:59;27.30;;;9.20;;
8675;SDS011;4375;52.486;13.424;2024-01-30T02:20:24;29.27;;;9.73;;
8675;SDS011;4375;52.486;13.424;2024-01-30T02:22:52;24.63;;;8.87;;
8675;SDS011;4375;52.486;13.424;2024-01-30T02:25:29;27.73;;;8.77;;
8675;SDS011;4375;52.486;13.424;2024-01-30T02:27:56;26.23;;;9.70;;
8675;SDS011;4375;52.486;13.424;2024-01-30T02:30:21;26.00;;;9.33;;
8675;SDS011;4375;52.486;13.424;2024-01-30T02:32:47;23.00;;;7.50;;
8675;SDS011;4375;52.486;13.424;2024-01-30T02:35:12;27.03;;;8.97;;
8675;SDS011;4375;52.486;13.424;2024-01-30T02:37:38;25.20;;;8.57;;
8675;SDS011;4375;52.486;13.424;2024-01-30T02:40:04;24.23;;;8.60;;
8675;SDS011;4375;52.486;13.424;2024-01-30T02:42:30;24.67;;;9.17;;
8675;SDS011;4375;52.486;13.424;2024-01-30T02:44:55;26.20;;;9.97;;
8675;SDS011;4375;52.486;13.424;2024-01-30T02:47:21;27.47;;;10.00;;
8675;SDS011;4375;52.486;13.424;2024-01-30T02:49:46;27.93;;;10.30;;
8675;SDS011;4375;52.486;13.424;2024-01-30T02:52:12;23.17;;;9.10;;
8675;SDS011;4375;52.486;13.424;2024-01-30T02:54:38;31.90;;;10.00;;
8675;SDS011;4375;52.486;13.424;2024-01-30T02:57:03;28.53;;;9.57;;
8675;SDS011;4375;52.486;13.424;2024-01-30T02:59:29;27.70;;;8.40;;
8675;SDS011;4375;52.486;13.424;2024-01-30T03:01:55;28.97;;;10.77;;
8675;SDS011;4375;52.486;13.424;2024-01-30T03:04:20;26.77;;;8.80;;
8675;SDS011;4375;52.486;13.424;2024-01-30T03:06:46;26.40;;;8.63;;
8675;SDS011;4375;52.486;13.424;2024-01-30T03:09:16;27.70;;;9.70;;
8675;SDS011;4375;52.486;13.424;2024-01-30T03:11:42;26.33;;;9.10;;
8675;SDS011;4375;52.486;13.424;2024-01-30T03:14:08;26.90;;;8.73;;
8675;SDS011;4375;52.486;13.424;2024-01-30T03:16:36;24.40;;;9.07;;
8675;SDS011;4375;52.486;13.424;2024-01-30T03:19:02;25.83;;;8.50;;
8675;SDS011;4375;52.486;13.424;2024-01-30T03:21:29;26.03;;;8.67;;
8675;SDS011;4375;52.486;13.424;2024-01-30T03:23:54;25.37;;;8.87;;
8675;SDS011;4375;52.486;13.424;2024-01-30T03:26:20;27.90;;;9.50;;
8675;SDS011;4375;52.486;13.424;2024-01-30T03:28:46;22.93;;;8.07;;
8675;SDS011;4375;52.486;13.424;2024-01-30T03:31:13;25.90;;;9.07;;
8675;SDS011;4375;52.486;13.424;2024-01-30T03:33:40;25.87;;;9.20;;
8675;SDS011;4375;52.486;13.424;2024-01-30T03:36:06;26.33;;;8.90;;
8675;SDS011;4375;52.486;13.424;2024-01-30T03:38:32;25.10;;;8.23;;
8675;SDS011;4375;52.486;13.424;2024-01-30T03:40:58;23.67;;;9.00;;
8675;SDS011;4375;52.486;13.424;2024-01-30T03:43:24;23.47;;;8.63;;
8675;SDS011;4375;52.486;13.424;2024-01-30T03:45:50;26.07;;;9.30;;
8675;SDS011;4375;52.486;13.424;2024-01-30T03:48:16;28.17;;;8.90;;
8675;SDS011;4375;52.486;13.424;2024-01-30T03:50:41;29.97;;;9.27;;
8675;SDS011;4375;52.486;13.424;2024-01-30T03:53:07;25.47;;;8.90;;
8675;SDS011;4375;52.486;13.424;2024-01-30T03:55:33;27.80;;;8.90;;
8675;SDS011;4375;52.486;13.424;2024-01-30T03:57:58;27.87;;;9.27;;
8675;SDS011;4375;52.486;13.424;2024-01-30T04:00:24;25.70;;;8.70;;
8675;SDS011;4375;52.486;13.424;2024-01-30T04:02:49;27.40;;;9.57;;
8675;SDS011;4375;52.486;13.424;2024-01-30T04:05:16;26.67;;;9.23;;
8675;SDS011;4375;52.486;13.424;2024-01-30T04:07:42;26.00;;;8.93;;
8675;SDS011;4375;52.486;13.424;2024-01-30T04:10:07;29.43;;;8.97;;
8675;SDS011;4375;52.486;13.424;2024-01-30T04:12:34;24.10;;;8.67;;
8675;SDS011;4375;52.486;13.424;2024-01-30T04:15:01;30.00;;;9.70;;
8675;SDS011;4375;52.486;13.424;2024-01-30T04:17:27;25.73;;;8.10;;
8675;SDS011;4375;52.486;13.424;2024-01-30T04:19:54;23.00;;;8.50;;
8675;SDS011;4375;52.486;13.424;2024-01-30T04:22:19;28.13;;;9.13;;
8675;SDS011;4375;52.486;13.424;2024-01-30T04:24:45;24.27;;;8.70;;
8675;SDS011;4375;52.486;13.424;2024-01-30T04:27:11;23.53;;;7.80;;
8675;SDS011;4375;52.486;13.424;2024-01-30T04:29:36;25.50;;;8.90;;
8675;SDS011;4375;52.486;13.424;2024-01-30T04:32:02;29.50;;;8.70;;
8675;SDS011;4375;52.486;13.424;2024-01-30T04:34:28;24.17;;;8.70;;
8675;SDS011;4375;52.486;13.424;2024-01-30T04:36:54;21.80;;;8.67;;
8675;SDS011;4375;52.486;13.424;2024-01-30T04:39:19;26.17;;;8.60;;
8675;SDS011;4375;52.486;13.424;2024-01-30T04:41:45;23.70;;;8.70;;
8675;SDS011;4375;52.486;13.424;2024-01-30T04:44:11;23.13;;;8.47;;
8675;SDS011;4375;52.486;13.424;2024-01-30T04:46:36;25.20;;;8.00;;
8675;SDS011;4375;52.486;13.424;2024-01-30T04:49:02;23.10;;;7.80;;
8675;SDS011;4375;52.486;13.424;2024-01-30T04:51:28;25.47;;;9.30;;
8675;SDS011;4375;52.486;13.424;2024-01-30T04:53:54;23.17;;;8.63;;
8675;SDS011;4375;52.486;13.424;2024-01-30T04:56:20;26.40;;;9.90;;
8675;SDS011;4375;52.486;13.424;2024-01-30T04:58:46;25.43;;;8.90;;
8675;SDS011;4375;52.486;13.424;2024-01-30T05:01:15;25.37;;;9.20;;
8675;SDS011;4375;52.486;13.424;2024-01-30T05:03:41;24.13;;;7.90;;
8675;SDS011;4375;52.486;13.424;2024-01-30T05:06:07;22.53;;;8.37;;
8675;SDS011;4375;52.486;13.424;2024-01-30T05:08:33;26.70;;;9.13;;
8675;SDS011;4375;52.486;13.424;2024-01-30T05:11:01;28.30;;;8.90;;
8675;SDS011;4375;52.486;13.424;2024-01-30T05:13:29;25.00;;;8.20;;
8675;SDS011;4375;52.486;13.424;2024-01-30T05:15:55;25.70;;;7.70;;
8675;SDS011;4375;52.486;13.424;2024-01-30T05:18:21;31.60;;;10.00;;
8675;SDS011;4375;52.486;13.424;2024-01-30T05:20:46;22.30;;;7.97;;
8675;SDS011;4375;52.486;13.424;2024-01-30T05:23:12;29.07;;;10.27;;
8675;SDS011;4375;52.486;13.424;2024-01-30T05:25:37;22.73;;;8.20;;
8675;SDS011;4375;52.486;13.424;2024-01-30T05:28:03;25.33;;;8.30;;
8675;SDS011;4375;52.486;13.424;2024-01-30T05:30:29;27.73;;;9.50;;
8675;SDS011;4375;52.486;13.424;2024-01-30T05:32:55;27.63;;;9.63;;
8675;SDS011;4375;52.486;13.424;2024-01-30T05:35:21;23.67;;;8.90;;
8675;SDS011;4375;52.486;13.424;2024-01-30T05:37:47;21.37;;;7.93;;
8675;SDS011;4375;52.486;13.424;2024-01-30T05:40:14;23.30;;;8.10;;
8675;SDS011;4375;52.486;13.424;2024-01-30T05:42:40;22.00;;;8.50;;
8675;SDS011;4375;52.486;13.424;2024-01-30T05:45:06;25.23;;;8.80;;
8675;SDS011;4375;52.486;13.424;2024-01-30T05:47:31;24.00;;;8.57;;
8675;SDS011;4375;52.486;13.424;2024-01-30T05:49:57;27.47;;;8.57;;
8675;SDS011;4375;52.486;13.424;2024-01-30T05:52:22;27.00;;;9.83;;
8675;SDS011;4375;52.486;13.424;2024-01-30T05:54:48;28.03;;;10.03;;
8675;SDS011;4375;52.486;13.424;2024-01-30T05:57:14;25.73;;;10.00;;
8675;SDS011;4375;52.486;13.424;2024-01-30T05:59:39;25.83;;;9.30;;
8675;SDS011;4375;52.486;13.424;2024-01-30T06:02:05;26.93;;;8.90;;
8675;SDS011;4375;52.486;13.424;2024-01-30T06:04:30;28.73;;;9.07;;
8675;SDS011;4375;52.486;13.424;2024-01-30T06:06:56;27.57;;;9.80;;
8675;SDS011;4375;52.486;13.424;2024-01-30T06:09:21;26.37;;;10.10;;
8675;SDS011;4375;52.486;13.424;2024-01-30T06:11:47;29.97;;;9.97;;
8675;SDS011;4375;52.486;13.424;2024-01-30T06:14:13;27.30;;;9.87;;
8675;SDS011;4375;52.486;13.424;2024-01-30T06:16:38;27.10;;;9.63;;
8675;SDS011;4375;52.486;13.424;2024-01-30T06:19:04;26.63;;;9.53;;
8675;SDS011;4375;52.486;13.424;2024-01-30T06:21:30;26.83;;;10.33;;
8675;SDS011;4375;52.486;13.424;2024-01-30T06:24:00;28.87;;;10.43;;
8675;SDS011;4375;52.486;13.424;2024-01-30T06:26:26;39.53;;;10.90;;
8675;SDS011;4375;52.486;13.424;2024-01-30T06:28:52;26.97;;;9.70;;
8675;SDS011;4375;52.486;13.424;2024-01-30T06:31:18;30.23;;;10.00;;
8675;SDS011;4375;52.486;13.424;2024-01-30T06:33:46;24.10;;;9.60;;
8675;SDS011;4375;52.486;13.424;2024-01-30T06:36:12;28.53;;;10.83;;
8675;SDS011;4375;52.486;13.424;2024-01-30T06:38:37;26.10;;;10.10;;
8675;SDS011;4375;52.486;13.424;2024-01-30T06:41:03;32.30;;;9.20;;
8675;SDS011;4375;52.486;13.424;2024-01-30T06:43:29;29.70;;;10.10;;
8675;SDS011;4375;52.486;13.424;2024-01-30T06:45:54;31.03;;;11.23;;
8675;SDS011;4375;52.486;13.424;2024-01-30T06:48:20;37.00;;;11.67;;
8675;SDS011;4375;52.486;13.424;2024-01-30T06:50:45;30.63;;;11.43;;
8675;SDS011;4375;52.486;13.424;2024-01-30T06:53:12;27.17;;;10.80;;
8675;SDS011;4375;52.486;13.424;2024-01-30T06:55:38;34.47;;;12.73;;
8675;SDS011;4375;52.486;13.424;2024-01-30T06:58:04;34.47;;;11.67;;
8675;SDS011;4375;52.486;13.424;2024-01-30T07:00:29;33.53;;;13.23;;
8675;SDS011;4375;52.486;13.424;2024-01-30T07:02:55;42.90;;;11.93;;
8675;SDS011;4375;52.486;13.424;2024-01-30T07:05:21;36.20;;;13.13;;
8675;SDS011;4375;52.486;13.424;2024-01-30T07:07:47;36.97;;;14.07;;
8675;SDS011;4375;52.486;13.424;2024-01-30T07:10:12;41.07;;;11.93;;
8675;SDS011;4375;52.486;13.424;2024-01-30T07:12:38;30.83;;;11.93;;
8675;SDS011;4375;52.486;13.424;2024-01-30T07:15:04;27.23;;;9.83;;
8675;SDS011;4375;52.486;13.424;2024-01-30T07:17:33;29.67;;;11.87;;
8675;SDS011;4375;52.486;13.424;2024-01-30T07:19:59;27.60;;;10.23;;
8675;SDS011;4375;52.486;13.424;2024-01-30T07:22:24;26.47;;;10.80;;
8675;SDS011;4375;52.486;13.424;2024-01-30T07:24:50;25.47;;;9.17;;
8675;SDS011;4375;52.486;13.424;2024-01-30T07:27:17;30.90;;;10.60;;
8675;SDS011;4375;52.486;13.424;2024-01-30T07:29:43;25.93;;;10.63;;
8675;SDS011;4375;52.486;13.424;2024-01-30T07:32:08;28.67;;;10.57;;
8675;SDS011;4375;52.486;13.424;2024-01-30T07:34:34;27.07;;;9.97;;
8675;SDS011;4375;52.486;13.424;2024-01-30T07:37:01;37.73;;;10.30;;
8675;SDS011;4375;52.486;13.424;2024-01-30T07:39:27;29.10;;;11.03;;
8675;SDS011;4375;52.486;13.424;2024-01-30T07:41:53;31.70;;;11.37;;
8675;SDS011;4375;52.486;13.424;2024-01-30T07:44:18;30.07;;;11.60;;
8675;SDS011;4375;52.486;13.424;2024-01-30T07:46:44;26.90;;;9.90;;
8675;SDS011;4375;52.486;13.424;2024-01-30T07:49:09;30.60;;;10.30;;
8675;SDS011;4375;52.486;13.424;2024-01-30T07:51:39;32.03;;;11.77;;
8675;SDS011;4375;52.486;13.424;2024-01-30T07:54:05;30.40;;;11.73;;
8675;SDS011;4375;52.486;13.424;2024-01-30T07:56:39;31.90;;;11.60;;
8675;SDS011;4375;52.486;13.424;2024-01-30T07:59:05;28.93;;;11.00;;
8675;SDS011;4375;52.486;13.424;2024-01-30T08:01:34;31.73;;;12.13;;
8675;SDS011;4375;52.486;13.424;2024-01-30T08:04:00;36.27;;;12.10;;
8675;SDS011;4375;52.486;13.424;2024-01-30T08:06:25;27.40;;;11.73;;
8675;SDS011;4375;52.486;13.424;2024-01-30T08:08:51;26.60;;;11.43;;
8675;SDS011;4375;52.486;13.424;2024-01-30T08:11:19;30.63;;;11.40;;
8675;SDS011;4375;52.486;13.424;2024-01-30T08:13:45;30.07;;;10.93;;
8675;SDS011;4375;52.486;13.424;2024-01-30T08:16:11;29.33;;;9.93;;
8675;SDS011;4375;52.486;13.424;2024-01-30T08:18:37;32.60;;;10.77;;
8675;SDS011;4375;52.486;13.424;2024-01-30T08:21:02;26.20;;;10.80;;
8675;SDS011;4375;52.486;13.424;2024-01-30T08:23:29;27.70;;;10.10;;
8675;SDS011;4375;52.486;13.424;2024-01-30T08:25:54;29.03;;;10.57;;
8675;SDS011;4375;52.486;13.424;2024-01-30T08:28:20;26.37;;;9.43;;
8675;SDS011;4375;52.486;13.424;2024-01-30T08:30:46;30.00;;;10.20;;
8675;SDS011;4375;52.486;13.424;2024-01-30T08:33:11;28.83;;;9.00;;
8675;SDS011;4375;52.486;13.424;2024-01-30T08:35:37;36.40;;;11.30;;
8675;SDS011;4375;52.486;13.424;2024-01-30T08:38:03;30.60;;;10.17;;
8675;SDS011;4375;52.486;13.424;2024-01-30T08:40:29;29.40;;;10.60;;
8675;SDS011;4375;52.486;13.424;2024-01-30T08:42:55;30.03;;;9.30;;
8675;SDS011;4375;52.486;13.424;2024-01-30T08:45:21;30.33;;;10.40;;
8675;SDS011;4375;52.486;13.424;2024-01-30T08:47:47;25.80;;;9.83;;
8675;SDS011;4375;52.486;13.424;2024-01-30T08:50:12;32.67;;;11.10;;
8675;SDS011;4375;52.486;13.424;2024-01-30T08:52:38;29.80;;;10.20;;
8675;SDS011;4375;52.486;13.424;2024-01-30T08:55:03;28.53;;;10.73;;
8675;SDS011;4375;52.486;13.424;2024-01-30T08:57:29;27.77;;;9.67;;
8675;SDS011;4375;52.486;13.424;2024-01-30T08:59:55;37.13;;;9.93;;
8675;SDS011;4375;52.486;13.424;2024-01-30T09:02:21;30.63;;;9.60;;
8675;SDS011;4375;52.486;13.424;2024-01-30T09:04:46;29.43;;;10.43;;
8675;SDS011;4375;52.486;13.424;2024-01-30T09:07:12;28.20;;;10.00;;
8675;SDS011;4375;52.486;13.424;2024-01-30T09:09:38;31.03;;;9.70;;
8675;SDS011;4375;52.486;13.424;2024-01-30T09:12:06;25.97;;;9.30;;
8675;SDS011;4375;52.486;13.424;2024-01-30T09:14:34;26.77;;;9.70;;
8675;SDS011;4375;52.486;13.424;2024-01-30T09:17:10;30.67;;;10.70;;
8675;SDS011;4375;52.486;13.424;2024-01-30T09:19:37;32.53;;;9.87;;
8675;SDS011;4375;52.486;13.424;2024-01-30T09:22:03;27.97;;;9.80;;
8675;SDS011;4375;52.486;13.424;2024-01-30T09:24:28;23.03;;;9.10;;
8675;SDS011;4375;52.486;13.424;2024-01-30T09:26:54;24.83;;;9.03;;
8675;SDS011;4375;52.486;13.424;2024-01-30T09:29:20;27.73;;;10.00;;
8675;SDS011;4375;52.486;13.424;2024-01-30T09:31:46;27.20;;;9.93;;
8675;SDS011;4375;52.486;13.424;2024-01-30T09:34:12;28.03;;;9.97;;
8675;SDS011;4375;52.486;13.424;2024-01-30T09:36:39;30.43;;;9.87;;
8675;SDS011;4375;52.486;13.424;2024-01-30T09:39:04;31.07;;;10.97;;
8675;SDS011;4375;52.486;13.424;2024-01-30T09:41:36;26.63;;;10.90;;
8675;SDS011;4375;52.486;13.424;2024-01-30T09:44:29;32.20;;;9.80;;
8675;SDS011;4375;52.486;13.424;2024-01-30T09:46:55;29.33;;;9.50;;
8675;SDS011;4375;52.486;13.424;2024-01-30T09:49:23;33.53;;;9.50;;
8675;SDS011;4375;52.486;13.424;2024-01-30T09:51:50;27.87;;;9.80;;
8675;SDS011;4375;52.486;13.424;2024-01-30T09:54:16;27.87;;;9.60;;
8675;SDS011;4375;52.486;13.424;2024-01-30T09:56:43;26.03;;;10.07;;
8675;SDS011;4375;52.486;13.424;2024-01-30T09:59:09;29.67;;;8.47;;
8675;SDS011;4375;52.486;13.424;2024-01-30T10:01:35;26.77;;;10.30;;
8675;SDS011;4375;52.486;13.424;2024-01-30T10:04:01;26.77;;;8.70;;
8675;SDS011;4375;52.486;13.424;2024-01-30T10:06:26;27.40;;;8.50;;
8675;SDS011;4375;52.486;13.424;2024-01-30T10:08:54;25.57;;;9.13;;
8675;SDS011;4375;52.486;13.424;2024-01-30T10:11:20;27.90;;;9.13;;
8675;SDS011;4375;52.486;13.424;2024-01-30T10:13:46;27.63;;;9.37;;
8675;SDS011;4375;52.486;13.424;2024-01-30T10:16:13;27.87;;;8.30;;
8675;SDS011;4375;52.486;13.424;2024-01-30T10:18:41;24.27;;;8.73;;
8675;SDS011;4375;52.486;13.424;2024-01-30T10:21:08;25.63;;;8.20;;
8675;SDS011;4375;52.486;13.424;2024-01-30T10:23:35;25.97;;;7.70;;
8675;SDS011;4375;52.486;13.424;2024-01-30T10:26:02;25.83;;;8.00;;
8675;SDS011;4375;52.486;13.424;2024-01-30T10:28:29;25.60;;;7.57;;
8675;SDS011;4375;52.486;13.424;2024-01-30T10:31:01;23.70;;;8.33;;
8675;SDS011;4375;52.486;13.424;2024-01-30T10:33:30;24.20;;;7.70;;
8675;SDS011;4375;52.486;13.424;2024-01-30T10:36:03;25.27;;;8.43;;
8675;SDS011;4375;52.486;13.424;2024-01-30T10:38:30;24.23;;;7.90;;
8675;SDS011;4375;52.486;13.424;2024-01-30T10:40:59;29.50;;;7.90;;
8675;SDS011;4375;52.486;13.424;2024-01-30T10:43:33;24.70;;;7.40;;
8675;SDS011;4375;52.486;13.424;2024-01-30T10:46:11;22.70;;;7.60;;
8675;SDS011;4375;52.486;13.424;2024-01-30T10:48:43;25.73;;;7.90;;
8675;SDS011;4375;52.486;13.424;2024-01-30T10:51:12;23.53;;;8.00;;
8675;SDS011;4375;52.486;13.424;2024-01-30T10:53:39;22.10;;;8.00;;
8675;SDS011;4375;52.486;13.424;2024-01-30T10:56:06;25.60;;;7.47;;
8675;SDS011;4375;52.486;13.424;2024-01-30T10:58:33;28.93;;;7.77;;
8675;SDS011;4375;52.486;13.424;2024-01-30T11:00:58;23.07;;;7.60;;
8675;SDS011;4375;52.486;13.424;2024-01-30T11:03:24;28.30;;;8.30;;
8675;SDS011;4375;52.486;13.424;2024-01-30T11:05:50;23.00;;;8.30;;
8675;SDS011;4375;52.486;13.424;2024-01-30T11:08:25;22.77;;;6.97;;
8675;SDS011;4375;52.486;13.424;2024-01-30T11:10:56;25.93;;;7.60;;
8675;SDS011;4375;52.486;13.424;2024-01-30T11:13:29;23.50;;;8.20;;
8675;SDS011;4375;52.486;13.424;2024-01-30T11:15:59;24.20;;;8.30;;
8675;SDS011;4375;52.486;13.424;2024-01-30T11:18:26;22.00;;;7.17;;
8675;SDS011;4375;52.486;13.424;2024-01-30T11:20:58;22.13;;;7.20;;
8675;SDS011;4375;52.486;13.424;2024-01-30T11:23:26;23.03;;;7.53;;
8675;SDS011;4375;52.486;13.424;2024-01-30T11:25:53;24.20;;;8.07;;
8675;SDS011;4375;52.486;13.424;2024-01-30T11:28:19;23.00;;;7.63;;
8675;SDS011;4375;52.486;13.424;2024-01-30T11:30:46;21.07;;;7.10;;
8675;SDS011;4375;52.486;13.424;2024-01-30T11:33:15;22.77;;;8.20;;
8675;SDS011;4375;52.486;13.424;2024-01-30T11:35:56;27.13;;;7.17;;
8675;SDS011;4375;52.486;13.424;2024-01-30T11:38:23;23.37;;;7.90;;
8675;SDS011;4375;52.486;13.424;2024-01-30T11:40:52;21.77;;;7.30;;
8675;SDS011;4375;52.486;13.424;2024-01-30T11:43:19;24.23;;;7.40;;
8675;SDS011;4375;52.486;13.424;2024-01-30T11:45:45;23.83;;;7.73;;
8675;SDS011;4375;52.486;13.424;2024-01-30T11:48:11;27.33;;;7.60;;
8675;SDS011;4375;52.486;13.424;2024-01-30T11:50:38;22.87;;;7.70;;
8675;SDS011;4375;52.486;13.424;2024-01-30T11:53:05;28.10;;;8.23;;
8675;SDS011;4375;52.486;13.424;2024-01-30T11:55:31;24.30;;;7.20;;
8675;SDS011;4375;52.486;13.424;2024-01-30T11:57:58;24.27;;;8.10;;
8675;SDS011;4375;52.486;13.424;2024-01-30T12:00:24;23.53;;;7.60;;
8675;SDS011;4375;52.486;13.424;2024-01-30T12:02:50;22.47;;;7.70;;
8675;SDS011;4375;52.486;13.424;2024-01-30T12:05:26;26.47;;;7.63;;
8675;SDS011;4375;52.486;13.424;2024-01-30T12:07:52;23.27;;;8.40;;
8675;SDS011;4375;52.486;13.424;2024-01-30T12:10:18;27.70;;;8.87;;
8675;SDS011;4375;52.486;13.424;2024-01-30T12:12:50;32.67;;;8.33;;
8675;SDS011;4375;52.486;13.424;2024-01-30T12:15:16;26.67;;;9.03;;
8675;SDS011;4375;52.486;13.424;2024-01-30T12:17:43;26.80;;;8.07;;
8675;SDS011;4375;52.486;13.424;2024-01-30T12:22:36;22.20;;;6.53;;
8675;SDS011;4375;52.486;13.424;2024-01-30T12:25:09;24.10;;;8.13;;
8675;SDS011;4375;52.486;13.424;2024-01-30T12:27:36;24.83;;;7.63;;
8675;SDS011;4375;52.486;13.424;2024-01-30T12:30:08;25.67;;;8.27;;
8675;SDS011;4375;52.486;13.424;2024-01-30T12:32:35;24.63;;;8.83;;
8675;SDS011;4375;52.486;13.424;2024-01-30T12:35:17;27.03;;;7.80;;
8675;SDS011;4375;52.486;13.424;2024-01-30T12:37:45;23.50;;;8.10;;
8675;SDS011;4375;52.486;13.424;2024-01-30T12:40:14;27.17;;;7.50;;
8675;SDS011;4375;52.486;13.424;2024-01-30T12:42:40;24.30;;;8.30;;
8675;SDS011;4375;52.486;13.424;2024-01-30T12:45:11;23.83;;;7.97;;
8675;SDS011;4375;52.486;13.424;2024-01-30T12:47:39;25.97;;;8.20;;
8675;SDS011;4375;52.486;13.424;2024-01-30T12:50:05;25.27;;;8.33;;
8675;SDS011;4375;52.486;13.424;2024-01-30T12:52:31;26.00;;;9.10;;
8675;SDS011;4375;52.486;13.424;2024-01-30T12:54:56;27.43;;;9.50;;
8675;SDS011;4375;52.486;13.424;2024-01-30T12:57:22;28.30;;;9.17;;
8675;SDS011;4375;52.486;13.424;2024-01-30T12:59:48;28.07;;;9.60;;
8675;SDS011;4375;52.486;13.424;2024-01-30T13:02:14;28.10;;;8.80;;
8675;SDS011;4375;52.486;13.424;2024-01-30T13:04:40;32.63;;;9.40;;
8675;SDS011;4375;52.486;13.424;2024-01-30T13:07:07;23.33;;;8.67;;
8675;SDS011;4375;52.486;13.424;2024-01-30T13:09:32;26.67;;;8.77;;
8675;SDS011;4375;52.486;13.424;2024-01-30T13:11:58;24.03;;;8.80;;
8675;SDS011;4375;52.486;13.424;2024-01-30T13:14:27;29.00;;;8.90;;
8675;SDS011;4375;52.486;13.424;2024-01-30T13:16:53;24.53;;;8.23;;
8675;SDS011;4375;52.486;13.424;2024-01-30T13:19:18;24.43;;;8.37;;
8675;SDS011;4375;52.486;13.424;2024-01-30T13:21:44;22.60;;;7.50;;
8675;SDS011;4375;52.486;13.424;2024-01-30T13:24:10;30.30;;;8.03;;
8675;SDS011;4375;52.486;13.424;2024-01-30T13:26:35;24.40;;;7.67;;
8675;SDS011;4375;52.486;13.424;2024-01-30T13:29:01;24.93;;;8.03;;
8675;SDS011;4375;52.486;13.424;2024-01-30T13:31:36;22.70;;;7.43;;
8675;SDS011;4375;52.486;13.424;2024-01-30T13:34:02;23.97;;;8.17;;
8675;SDS011;4375;52.486;13.424;2024-01-30T13:39:03;25.10;;;8.17;;
8675;SDS011;4375;52.486;13.424;2024-01-30T13:41:32;24.10;;;7.93;;
8675;SDS011;4375;52.486;13.424;2024-01-30T13:43:58;26.67;;;7.63;;
8675;SDS011;4375;52.486;13.424;2024-01-30T13:46:23;24.47;;;7.80;;
8675;SDS011;4375;52.486;13.424;2024-01-30T13:48:50;21.40;;;7.80;;
8675;SDS011;4375;52.486;13.424;2024-01-30T13:51:16;25.20;;;7.90;;
8675;SDS011;4375;52.486;13.424;2024-01-30T13:53:42;26.13;;;7.03;;
8675;SDS011;4375;52.486;13.424;2024-01-30T13:56:07;22.07;;;6.57;;
8675;SDS011;4375;52.486;13.424;2024-01-30T13:58:33;21.70;;;6.90;;
8675;SDS011;4375;52.486;13.424;2024-01-30T14:01:01;21.97;;;7.83;;
8675;SDS011;4375;52.486;13.424;2024-01-30T14:03:27;21.60;;;6.77;;
8675;SDS011;4375;52.486;13.424;2024-01-30T14:05:53;29.63;;;9.03;;
8675;SDS011;4375;52.486;13.424;2024-01-30T14:08:18;23.73;;;8.07;;
8675;SDS011;4375;52.486;13.424;2024-01-30T14:10:46;25.53;;;7.10;;
8675;SDS011;4375;52.486;13.424;2024-01-30T14:13:12;30.30;;;8.10;;
8675;SDS011;4375;52.486;13.424;2024-01-30T14:15:38;22.73;;;8.47;;
8675;SDS011;4375;52.486;13.424;2024-01-30T14:18:04;22.70;;;7.90;;
8675;SDS011;4375;52.486;13.424;2024-01-30T14:20:33;27.30;;;8.40;;
8675;SDS011;4375;52.486;13.424;2024-01-30T14:22:58;27.60;;;8.30;;
8675;SDS011;4375;52.486;13.424;2024-01-30T14:25:24;29.30;;;9.00;;
8675;SDS011;4375;52.486;13.424;2024-01-30T14:27:50;31.60;;;9.03;;
8675;SDS011;4375;52.486;13.424;2024-01-30T14:30:16;27.07;;;8.23;;
8675;SDS011;4375;52.486;13.424;2024-01-30T14:32:42;23.57;;;8.50;;
8675;SDS011;4375;52.486;13.424;2024-01-30T14:35:09;26.50;;;7.97;;
8675;SDS011;4375;52.486;13.424;2024-01-30T14:37:35;25.43;;;8.20;;
8675;SDS011;4375;52.486;13.424;2024-01-30T14:40:02;27.40;;;8.70;;
8675;SDS011;4375;52.486;13.424;2024-01-30T14:42:28;26.40;;;8.20;;
8675;SDS011;4375;52.486;13.424;2024-01-30T14:44:56;23.50;;;7.97;;
8675;SDS011;4375;52.486;13.424;2024-01-30T14:47:22;24.70;;;7.00;;